createdAt,value
2018-07-23T00:03:55.390Z,22.20
2018-07-23T00:07:57.622Z,22.30
2018-07-23T00:11:59.848Z,22.50
2018-07-23T00:16:02.072Z,22.50
2018-07-23T00:20:04.347Z,22.50
2018-07-23T00:24:06.650Z,22.50
2018-07-23T00:28:08.915Z,22.50
2018-07-23T00:32:11.105Z,22.40
2018-07-23T00:36:13.323Z,22.20
2018-07-23T00:40:15.702Z,22.20
2018-07-23T00:44:18.865Z,22.20
2018-07-23T00:48:21.756Z,22.30
2018-07-23T00:52:24.028Z,22.20
2018-07-23T00:56:26.245Z,22.00
2018-07-23T01:00:28.494Z,22.00
2018-07-23T01:04:30.816Z,21.80
2018-07-23T01:08:33.032Z,21.90
2018-07-23T01:12:35.346Z,21.80
2018-07-23T01:16:37.569Z,21.70
2018-07-23T01:20:39.794Z,21.80
2018-07-23T01:24:42.048Z,21.70
2018-07-23T01:28:44.400Z,21.70
2018-07-23T01:32:46.624Z,21.80
2018-07-23T01:36:48.841Z,21.70
2018-07-23T01:40:51.065Z,21.50
2018-07-23T01:44:53.514Z,21.50
2018-07-23T01:48:55.813Z,21.50
2018-07-23T01:52:57.958Z,21.50
2018-07-23T01:57:00.303Z,21.50
2018-07-23T02:01:08.266Z,21.40
2018-07-23T02:05:10.413Z,21.30
2018-07-23T02:09:13.081Z,21.30
2018-07-23T02:13:15.305Z,21.20
2018-07-23T02:17:17.535Z,21.20
2018-07-23T02:21:20.361Z,21.10
2018-07-23T02:25:22.509Z,21.10
2018-07-23T02:29:24.730Z,21.20
2018-07-23T02:33:26.875Z,21.20
2018-07-23T02:37:29.026Z,21.30
2018-07-23T02:41:31.190Z,21.20
2018-07-23T02:45:33.362Z,21.20
2018-07-23T02:49:35.524Z,21.10
2018-07-23T02:53:37.735Z,21.00
2018-07-23T02:57:39.907Z,20.90
2018-07-23T03:01:42.211Z,20.90
2018-07-23T03:05:44.371Z,21.00
2018-07-23T03:09:46.585Z,21.00
2018-07-23T03:13:48.754Z,21.00
2018-07-23T03:17:51.235Z,21.00
2018-07-23T03:21:53.596Z,21.00
2018-07-23T03:25:55.638Z,20.90
2018-07-23T03:29:57.793Z,20.80
2018-07-23T03:34:00.015Z,20.70
2018-07-23T03:38:02.506Z,20.60
2018-07-23T03:42:04.749Z,20.70
2018-07-23T03:46:07.098Z,20.80
2018-07-23T03:50:09.262Z,20.70
2018-07-23T03:54:11.388Z,20.70
2018-07-23T03:58:13.630Z,20.70
2018-07-23T04:02:15.863Z,20.70
2018-07-23T04:06:18.010Z,20.80
2018-07-23T04:10:20.173Z,21.00
2018-07-23T04:14:22.339Z,21.00
2018-07-23T04:18:24.558Z,20.80
2018-07-23T04:22:26.941Z,21.20
2018-07-23T04:26:29.089Z,21.10
2018-07-23T04:30:31.328Z,21.10
2018-07-23T04:34:33.590Z,21.30
2018-07-23T04:38:36.203Z,21.30
2018-07-23T04:42:38.603Z,21.60
2018-07-23T04:46:40.927Z,21.80
2018-07-23T04:50:43.143Z,22.00
2018-07-23T04:54:45.228Z,22.20
2018-07-23T04:58:47.575Z,22.30
2018-07-23T05:02:49.827Z,22.60
2018-07-23T05:06:52.055Z,22.70
2018-07-23T05:10:54.264Z,22.80
2018-07-23T05:14:56.566Z,22.50
2018-07-23T05:18:58.794Z,22.90
2018-07-23T05:23:00.960Z,22.90
2018-07-23T05:27:03.107Z,22.70
2018-07-23T05:31:05.342Z,23.00
2018-07-23T05:35:07.516Z,23.10
2018-07-23T05:39:11.300Z,23.10
2018-07-23T05:43:13.531Z,23.20
2018-07-23T05:47:15.687Z,23.80
2018-07-23T05:51:18.070Z,24.70
2018-07-23T05:55:20.249Z,25.40
2018-07-23T05:59:22.444Z,25.80
2018-07-23T06:03:24.699Z,26.50
2018-07-23T06:07:31.209Z,28.00
2018-07-23T06:11:33.473Z,29.90
2018-07-23T06:15:35.852Z,31.00
2018-07-23T06:19:38.093Z,32.30
2018-07-23T06:23:40.302Z,33.40
2018-07-23T06:27:42.455Z,33.60
2018-07-23T06:31:44.630Z,33.40
2018-07-23T06:35:46.862Z,33.30
2018-07-23T06:39:49.751Z,32.80
2018-07-23T06:43:51.967Z,32.30
2018-07-23T06:47:54.229Z,31.70
2018-07-23T06:51:56.432Z,31.00
2018-07-23T06:55:58.614Z,30.30
2018-07-23T07:00:00.846Z,30.50
2018-07-23T07:04:03.076Z,29.80
2018-07-23T07:08:05.620Z,29.30
2018-07-23T07:12:07.878Z,27.40
2018-07-23T07:16:10.088Z,28.50
2018-07-23T07:20:12.543Z,28.50
2018-07-23T07:24:14.727Z,27.20
2018-07-23T07:28:16.943Z,26.30
2018-07-23T07:32:19.123Z,28.20
2018-07-23T07:36:21.353Z,29.30
2018-07-23T07:40:23.550Z,28.20
2018-07-23T07:44:25.695Z,29.20
2018-07-23T07:48:27.999Z,29.80
2018-07-23T07:52:30.167Z,30.10
2018-07-23T07:56:32.898Z,30.40
2018-07-23T08:00:35.098Z,29.60
2018-07-23T08:04:37.297Z,29.50
2018-07-23T08:08:40.074Z,30.30
2018-07-23T08:12:42.282Z,30.60
2018-07-23T08:16:44.634Z,30.70
2018-07-23T08:20:46.856Z,31.20
2018-07-23T08:24:49.031Z,30.50
2018-07-23T08:28:51.207Z,30.60
2018-07-23T08:32:54.235Z,31.70
2018-07-23T08:36:56.791Z,31.30
2018-07-23T08:40:59.098Z,31.80
2018-07-23T08:45:01.358Z,30.50
2018-07-23T08:49:04.066Z,31.40
2018-07-23T08:53:06.329Z,31.00
2018-07-23T08:57:08.611Z,31.30
2018-07-23T09:01:10.768Z,31.60
2018-07-23T09:05:13.087Z,32.60
2018-07-23T09:09:15.338Z,32.10
2018-07-23T09:13:17.841Z,32.40
2018-07-23T09:17:20.088Z,31.70
2018-07-23T09:21:22.251Z,32.10
2018-07-23T09:25:29.035Z,32.00
2018-07-23T09:29:31.239Z,31.90
2018-07-23T09:33:33.435Z,31.70
2018-07-23T09:37:35.684Z,33.10
2018-07-23T09:41:37.867Z,34.00
2018-07-23T09:45:40.241Z,33.40
2018-07-23T09:49:42.398Z,32.00
2018-07-23T09:53:44.619Z,32.40
2018-07-23T09:57:46.816Z,32.70
2018-07-23T10:01:49.015Z,32.70
2018-07-23T10:05:51.216Z,33.70
2018-07-23T10:09:53.482Z,34.30
2018-07-23T10:13:55.634Z,34.40
2018-07-23T10:17:58.014Z,33.00
2018-07-23T10:22:00.395Z,33.30
2018-07-23T10:26:02.556Z,33.50
2018-07-23T10:30:05.112Z,29.90
2018-07-23T10:34:07.282Z,30.80
2018-07-23T10:38:09.599Z,29.70
2018-07-23T10:42:11.873Z,31.90
2018-07-23T10:46:14.043Z,33.50
2018-07-23T10:50:16.305Z,33.60
2018-07-23T10:54:18.759Z,33.90
2018-07-23T10:58:20.915Z,33.40
2018-07-23T11:02:23.343Z,32.70
2018-07-23T11:06:25.512Z,33.60
2018-07-23T11:10:27.703Z,33.40
2018-07-23T11:14:30.097Z,30.80
2018-07-23T11:18:32.286Z,32.70
2018-07-23T11:22:34.563Z,31.00
2018-07-23T11:26:36.786Z,30.80
2018-07-23T11:30:38.948Z,31.80
2018-07-23T11:34:41.116Z,33.40
2018-07-23T11:38:43.320Z,34.50
2018-07-23T11:42:45.588Z,34.60
2018-07-23T11:46:47.788Z,33.70
2018-07-23T11:50:50.195Z,34.40
2018-07-23T11:54:52.543Z,35.70
2018-07-23T11:58:54.728Z,34.80
2018-07-23T12:02:56.911Z,34.20
2018-07-23T12:06:59.504Z,35.00
2018-07-23T12:11:01.703Z,35.10
2018-07-23T12:15:04.951Z,34.90
2018-07-23T12:19:08.035Z,36.40
2018-07-23T12:23:10.300Z,36.60
2018-07-23T12:28:41.958Z,36.30
2018-07-23T12:32:44.177Z,34.30
2018-07-23T12:36:46.548Z,36.90
2018-07-23T12:40:48.748Z,39.00
2018-07-23T12:44:50.924Z,38.30
2018-07-23T12:48:53.837Z,39.80
2018-07-23T12:52:56.251Z,39.50
2018-07-23T12:56:58.431Z,39.60
2018-07-23T13:01:00.595Z,39.80
2018-07-23T13:05:02.839Z,35.70
2018-07-23T13:09:07.915Z,36.60
2018-07-23T13:13:10.109Z,37.80
2018-07-23T13:17:12.350Z,35.50
2018-07-23T13:21:14.626Z,36.00
2018-07-23T13:25:17.207Z,35.20
2018-07-23T13:29:19.446Z,37.30
2018-07-23T13:33:21.624Z,37.30
2018-07-23T13:37:23.851Z,38.50
2018-07-23T13:41:25.999Z,34.30
2018-07-23T13:45:28.207Z,35.70
2018-07-23T13:49:30.395Z,35.40
2018-07-23T13:53:32.555Z,36.60
2018-07-23T13:57:35.146Z,37.90
2018-07-23T14:01:37.331Z,37.10
2018-07-23T14:05:39.546Z,38.40
2018-07-23T14:09:41.709Z,40.00
2018-07-23T14:13:43.898Z,39.70
2018-07-23T14:17:46.109Z,38.50
2018-07-23T14:21:48.382Z,37.40
2018-07-23T14:25:50.519Z,37.70
2018-07-23T14:29:53.279Z,38.50
2018-07-23T14:33:55.431Z,38.40
2018-07-23T14:37:57.844Z,38.40
2018-07-23T14:42:00.006Z,39.10
2018-07-23T14:46:02.652Z,38.10
2018-07-23T14:50:04.813Z,40.20
2018-07-23T14:54:07.751Z,40.10
2018-07-23T14:58:09.960Z,38.20
2018-07-23T15:02:12.219Z,36.40
2018-07-23T15:06:14.496Z,36.00
2018-07-23T15:23:16.224Z,36.60
2018-07-23T15:27:18.465Z,35.50
2018-07-23T15:31:20.612Z,35.50
2018-07-23T15:35:22.760Z,34.50
2018-07-23T15:39:24.915Z,31.70
2018-07-23T15:43:27.123Z,32.70
2018-07-23T15:47:29.331Z,33.10
2018-07-23T15:51:31.499Z,34.00
2018-07-23T15:55:33.697Z,34.10
2018-07-23T15:59:36.016Z,33.20
2018-07-23T16:03:38.230Z,33.50
2018-07-23T16:07:40.480Z,32.60
2018-07-23T16:11:43.228Z,33.20
2018-07-23T16:15:45.410Z,33.60
2018-07-23T16:19:47.568Z,33.60
2018-07-23T16:23:49.800Z,32.70
2018-07-23T16:27:52.008Z,34.30
2018-07-23T16:31:54.230Z,34.70
2018-07-23T16:35:56.577Z,34.30
2018-07-23T16:39:58.764Z,33.40
2018-07-23T16:44:00.939Z,33.30
2018-07-23T16:48:03.321Z,33.10
2018-07-23T16:52:05.814Z,33.00
2018-07-23T16:56:07.992Z,32.50
2018-07-23T17:00:10.170Z,31.50
2018-07-23T17:04:12.331Z,32.70
2018-07-23T17:08:15.551Z,32.50
2018-07-23T17:12:17.731Z,32.80
2018-07-23T17:16:19.904Z,32.40
2018-07-23T17:20:22.126Z,32.20
2018-07-23T17:24:24.429Z,33.20
2018-07-23T17:28:26.709Z,32.70
2018-07-23T17:32:28.916Z,33.00
2018-07-23T17:36:31.118Z,32.80
2018-07-23T17:40:33.294Z,32.50
2018-07-23T17:44:35.488Z,32.70
2018-07-23T17:48:37.719Z,33.20
2018-07-23T17:52:39.900Z,32.40
2018-07-23T17:56:42.093Z,32.10
2018-07-23T18:00:44.369Z,31.90
2018-07-23T18:04:46.627Z,32.10
2018-07-23T18:08:48.822Z,32.20
2018-07-23T18:12:51.022Z,32.10
2018-07-23T18:16:53.351Z,32.20
2018-07-23T18:20:55.609Z,31.90
2018-07-23T18:24:57.875Z,32.60
2018-07-23T18:29:00.098Z,32.40
2018-07-23T18:33:02.523Z,32.20
2018-07-23T18:37:04.806Z,32.00
2018-07-23T18:41:07.070Z,32.30
2018-07-23T18:45:09.451Z,32.30
2018-07-23T18:49:24.206Z,32.00
2018-07-23T18:53:26.398Z,31.70
2018-07-23T18:57:28.590Z,31.70
2018-07-23T19:01:31.072Z,31.50
2018-07-23T19:05:33.492Z,31.50
2018-07-23T19:09:35.932Z,31.60
2018-07-23T19:13:38.212Z,31.50
2018-07-23T19:17:40.722Z,31.10
2018-07-23T19:21:42.937Z,30.70
2018-07-23T19:25:45.357Z,30.90
2018-07-23T19:29:47.625Z,30.40
2018-07-23T19:33:49.918Z,30.10
2018-07-23T19:37:52.360Z,29.90
2018-07-23T19:41:55.053Z,30.00
2018-07-23T19:45:57.744Z,30.00
2018-07-23T19:49:59.938Z,30.20
2018-07-23T19:54:02.311Z,30.00
2018-07-23T19:58:04.510Z,30.00
2018-07-23T20:02:06.739Z,29.80
2018-07-23T20:06:08.985Z,29.60
2018-07-23T20:10:11.302Z,29.40
2018-07-23T20:14:13.527Z,29.20
2018-07-23T20:18:15.792Z,29.00
2018-07-23T20:22:17.989Z,28.80
2018-07-23T20:26:20.204Z,28.80
2018-07-23T20:30:22.382Z,28.50
2018-07-23T20:34:24.590Z,28.40
2018-07-23T20:38:26.850Z,28.30
2018-07-23T20:42:29.046Z,28.20
2018-07-23T20:46:31.223Z,28.20
2018-07-23T20:50:33.395Z,28.10
2018-07-23T20:54:35.611Z,27.90
2018-07-23T20:58:37.919Z,27.80
2018-07-23T21:02:40.143Z,27.60
2018-07-23T21:06:42.415Z,27.60
2018-07-23T21:10:44.652Z,27.50
2018-07-23T21:14:46.922Z,27.50
2018-07-23T21:18:49.125Z,27.50
2018-07-23T21:22:51.306Z,27.30
2018-07-23T21:26:53.539Z,27.20
2018-07-23T21:30:55.950Z,27.10
2018-07-23T21:34:58.845Z,26.90
2018-07-23T21:39:01.035Z,26.80
2018-07-23T21:43:03.283Z,26.60
2018-07-23T21:47:05.795Z,26.60
2018-07-23T21:51:08.234Z,26.50
2018-07-23T21:55:10.507Z,26.40
2018-07-23T21:59:12.750Z,26.30
2018-07-23T22:03:15.054Z,26.20
2018-07-23T22:07:17.384Z,26.10
2018-07-23T22:11:19.575Z,26.00
2018-07-23T22:15:21.731Z,25.40
2018-07-23T22:19:24.416Z,25.40
2018-07-23T22:23:26.616Z,25.80
2018-07-23T22:27:28.759Z,25.60
2018-07-23T22:31:30.972Z,25.70
2018-07-23T22:35:33.154Z,25.60
2018-07-23T22:39:35.363Z,25.40
2018-07-23T22:43:37.556Z,25.40
2018-07-23T22:47:39.738Z,25.30
2018-07-23T22:51:41.921Z,25.20
2018-07-23T22:55:44.069Z,25.10
2018-07-23T22:59:46.210Z,25.00
2018-07-23T23:03:48.610Z,24.90
2018-07-23T23:07:50.818Z,24.90
2018-07-23T23:11:53.059Z,24.80
2018-07-23T23:15:55.250Z,24.60
2018-07-23T23:19:57.451Z,24.70
2018-07-23T23:23:59.674Z,24.70
2018-07-23T23:28:02.091Z,24.70
2018-07-23T23:32:04.227Z,24.70
2018-07-23T23:36:06.496Z,24.60
2018-07-23T23:40:08.846Z,24.40
2018-07-23T23:44:11.136Z,24.40
2018-07-23T23:48:13.494Z,24.30
2018-07-23T23:52:15.823Z,24.20
2018-07-23T23:56:18.006Z,24.20
